Time;durP1;ratioP1;P1;durP2;ratioP2;P2;SDS_P1;SDS_P2;PMS_P1;PMS_P2;Temp;Humidity;BMP_temperature;BMP_pressure;BME280_temperature;BME280_humidity;BME280_pressure;Samples;Min_cycle;Max_cycle;Signal;HPM_P1;HPM_P2
2023/03/20 00:01:12;;;;;;;;;;;10.70;82.20;;;;;;5049670;28;20395;-88
2023/03/20 00:03:37;;;;;;;;;;;10.70;81.70;;;;;;5050821;28;19917;-89
2023/03/20 00:06:03;;;;;;;;;;;10.70;81.90;;;;;;5047346;28;20007;-89
2023/03/20 00:08:30;;;;;;;;;;;10.60;82.20;;;;;;5051239;28;20282;-89
2023/03/20 00:10:57;;;;;;;;;;;10.60;82.20;;;;;;5052540;28;20316;-89
2023/03/20 00:13:28;;;;;;;;;;;10.60;82.00;;;;;;5048071;28;19916;-88
2023/03/20 00:15:54;;;;;;;;;;;10.60;82.20;;;;;;5051194;28;19912;-89
2023/03/20 00:18:21;;;;;;;;;;;10.50;81.80;;;;;;5050048;28;19921;-89
2023/03/20 00:20:50;;;;;;;;;;;10.50;81.40;;;;;;5049007;28;19920;-88
2023/03/20 00:23:16;;;;;;;;;;;10.60;81.10;;;;;;5048469;28;20396;-89
2023/03/20 00:25:43;;;;;;;;;;;10.50;81.10;;;;;;5046211;28;20287;-90
2023/03/20 00:28:28;;;;;;;;;;;10.50;81.50;;;;;;5049968;28;20292;-88
2023/03/20 00:30:53;;;;;;;;;;;10.50;81.40;;;;;;5044907;28;19931;-89
2023/03/20 00:33:19;;;;;;;;;;;10.50;81.80;;;;;;5050183;28;19917;-89
2023/03/20 00:35:44;;;;;;;;;;;10.50;82.00;;;;;;5065316;28;19912;-89
2023/03/20 00:38:09;;;;;;;;;;;10.40;82.30;;;;;;5054068;28;19956;-89
2023/03/20 00:40:35;;;;;;;;;;;10.30;82.20;;;;;;5047784;28;19931;-89
2023/03/20 00:43:01;;;;;;;;;;;10.30;82.10;;;;;;5049292;28;19912;-89
2023/03/20 00:45:28;;;;;;;;;;;10.30;81.90;;;;;;5045834;28;19916;-88
2023/03/20 00:47:54;;;;;;;;;;;10.20;82.00;;;;;;5048607;28;19963;-89
2023/03/20 00:50:22;;;;;;;;;;;10.20;81.60;;;;;;5047593;28;19917;-88
2023/03/20 00:52:48;;;;;;;;;;;10.30;81.30;;;;;;5046737;28;19913;-88
2023/03/20 00:55:14;;;;;;;;;;;10.30;81.30;;;;;;5046281;28;20037;-88
2023/03/20 00:57:44;;;;;;;;;;;10.20;80.90;;;;;;5052553;28;19912;-89
2023/03/20 01:00:13;;;;;;;;;;;10.20;81.40;;;;;;5049328;28;19912;-90
2023/03/20 01:02:38;;;;;;;;;;;10.00;81.60;;;;;;5052445;28;19912;-88
2023/03/20 01:05:04;;;;;;;;;;;10.00;81.80;;;;;;5051289;28;19944;-88
2023/03/20 01:07:30;;;;;;;;;;;10.10;81.10;;;;;;5050472;28;19954;-88
2023/03/20 01:09:55;;;;;;;;;;;10.00;81.60;;;;;;5049001;28;19924;-89
2023/03/20 01:12:21;;;;;;;;;;;10.00;81.20;;;;;;5045343;28;19912;-89
2023/03/20 01:17:19;;;;;;;;;;;10.00;81.50;;;;;;5071209;22;19984;-82
2023/03/20 01:19:45;;;;;;;;;;;10.00;81.40;;;;;;5068469;28;19909;-82
2023/03/20 01:22:12;;;;;;;;;;;10.10;80.90;;;;;;5044800;28;20001;-82
2023/03/20 01:24:39;;;;;;;;;;;10.00;81.00;;;;;;5033052;28;19916;-82
2023/03/20 01:27:10;;;;;;;;;;;10.00;81.30;;;;;;5050357;28;19924;-82
2023/03/20 01:29:35;;;;;;;;;;;10.00;81.50;;;;;;5034902;28;19925;-82
2023/03/20 01:32:01;;;;;;;;;;;10.10;81.40;;;;;;5030558;28;19994;-84
2023/03/20 01:34:26;;;;;;;;;;;10.00;81.40;;;;;;5058895;28;19912;-82
2023/03/20 01:36:52;;;;;;;;;;;10.00;81.40;;;;;;5050064;28;19956;-84
2023/03/20 01:39:26;;;;;;;;;;;10.00;81.80;;;;;;5028387;28;20318;-84
2023/03/20 01:41:53;;;;;;;;;;;10.00;81.70;;;;;;5030996;28;20453;-83
2023/03/20 01:44:29;;;;;;;;;;;9.80;82.00;;;;;;5046870;28;19936;-82
2023/03/20 01:46:54;;;;;;;;;;;9.90;82.20;;;;;;5030317;28;19983;-83
2023/03/20 01:49:20;;;;;;;;;;;9.80;81.90;;;;;;5027796;28;20275;-84
2023/03/20 01:51:46;;;;;;;;;;;9.80;82.10;;;;;;5027679;28;19913;-82
2023/03/20 01:54:14;;;;;;;;;;;9.80;81.90;;;;;;5044904;28;19944;-82
2023/03/20 01:56:43;;;;;;;;;;;9.80;82.00;;;;;;5030304;28;19916;-83
2023/03/20 01:59:11;;;;;;;;;;;9.80;81.80;;;;;;5041286;28;19952;-82
2023/03/20 02:01:37;;;;;;;;;;;9.90;81.50;;;;;;5045529;28;20318;-83
2023/03/20 02:04:07;;;;;;;;;;;9.90;81.20;;;;;;5043480;28;19924;-83
2023/03/20 02:06:34;;;;;;;;;;;9.90;81.40;;;;;;5031529;28;20330;-83
2023/03/20 02:09:00;;;;;;;;;;;9.90;81.60;;;;;;5055527;28;19956;-82
2023/03/20 02:11:26;;;;;;;;;;;9.90;81.30;;;;;;5050531;28;19928;-82
2023/03/20 02:13:53;;;;;;;;;;;9.90;81.40;;;;;;5027152;28;19913;-82
2023/03/20 02:16:19;;;;;;;;;;;9.90;81.70;;;;;;5045749;28;19931;-82
2023/03/20 02:18:46;;;;;;;;;;;9.90;81.60;;;;;;5044328;28;19955;-81
2023/03/20 02:21:38;;;;;;;;;;;9.80;81.70;;;;;;5033312;28;19932;-82
2023/03/20 02:24:26;;;;;;;;;;;9.60;81.80;;;;;;5045834;28;19928;-84
2023/03/20 02:26:57;;;;;;;;;;;9.60;82.10;;;;;;5051345;28;20435;-83
2023/03/20 02:29:41;;;;;;;;;;;9.70;82.10;;;;;;5027601;28;19932;-82
2023/03/20 02:32:22;;;;;;;;;;;9.70;82.10;;;;;;5028767;28;20007;-83
2023/03/20 02:34:48;;;;;;;;;;;9.70;81.50;;;;;;5033043;28;20363;-82
2023/03/20 02:37:13;;;;;;;;;;;9.60;81.70;;;;;;5047064;28;20016;-82
2023/03/20 02:39:49;;;;;;;;;;;9.60;81.40;;;;;;5049000;28;19917;-82
2023/03/20 02:42:23;;;;;;;;;;;9.60;81.40;;;;;;5046650;28;19917;-83
2023/03/20 02:45:07;;;;;;;;;;;9.60;81.20;;;;;;5051872;28;19913;-82
2023/03/20 02:47:32;;;;;;;;;;;9.60;81.50;;;;;;5047655;28;20558;-82
2023/03/20 02:50:07;;;;;;;;;;;9.60;81.40;;;;;;5048684;28;19956;-82
2023/03/20 02:52:41;;;;;;;;;;;9.50;81.50;;;;;;5050217;28;20483;-83
2023/03/20 02:55:27;;;;;;;;;;;9.50;80.90;;;;;;5049289;28;19921;-83
2023/03/20 02:57:53;;;;;;;;;;;9.50;80.50;;;;;;5053874;28;19917;-83
2023/03/20 03:00:25;;;;;;;;;;;9.60;79.30;;;;;;5038672;28;19921;-82
2023/03/20 03:02:55;;;;;;;;;;;9.60;79.10;;;;;;5028665;28;19923;-80
2023/03/20 03:05:24;;;;;;;;;;;9.50;79.40;;;;;;5026209;28;19959;-82
2023/03/20 03:07:52;;;;;;;;;;;9.60;78.70;;;;;;5059852;28;19988;-80
2023/03/20 03:10:21;;;;;;;;;;;9.50;78.00;;;;;;5028205;28;20059;-80
2023/03/20 03:12:48;;;;;;;;;;;9.40;78.60;;;;;;5058844;28;19912;-81
2023/03/20 03:15:28;;;;;;;;;;;9.30;78.70;;;;;;5064300;28;19972;-81
2023/03/20 03:17:57;;;;;;;;;;;9.30;78.80;;;;;;5050792;28;19913;-80
2023/03/20 03:20:24;;;;;;;;;;;9.30;78.60;;;;;;5048408;28;19913;-81
2023/03/20 03:22:50;;;;;;;;;;;9.30;77.80;;;;;;5034601;28;19970;-81
2023/03/20 03:25:16;;;;;;;;;;;9.30;77.90;;;;;;5032586;28;21085;-81
2023/03/20 03:27:42;;;;;;;;;;;9.20;78.00;;;;;;5025737;28;19980;-82
2023/03/20 03:30:16;;;;;;;;;;;9.10;78.20;;;;;;5058612;28;20297;-82
2023/03/20 03:33:17;;;;;;;;;;;9.30;78.10;;;;;;5056641;28;20000;-81
2023/03/20 03:35:43;;;;;;;;;;;9.30;77.70;;;;;;4966702;28;19929;-80
2023/03/20 03:38:23;;;;;;;;;;;9.20;77.70;;;;;;5035441;28;19992;-81
2023/03/20 03:40:57;;;;;;;;;;;9.10;78.10;;;;;;5055500;28;19909;-82
2023/03/20 03:43:40;;;;;;;;;;;9.00;78.00;;;;;;5054548;28;19940;-81
2023/03/20 03:46:09;;;;;;;;;;;9.00;78.30;;;;;;5031891;28;19913;-81
2023/03/20 03:48:36;;;;;;;;;;;9.10;78.30;;;;;;5045604;28;20008;-80
2023/03/20 03:51:04;;;;;;;;;;;9.00;77.90;;;;;;5027991;28;19923;-80
2023/03/20 03:53:33;;;;;;;;;;;9.00;78.10;;;;;;5045931;28;19921;-82
2023/03/20 03:56:00;;;;;;;;;;;9.00;78.20;;;;;;5028217;28;19917;-82
2023/03/20 03:58:31;;;;;;;;;;;9.00;78.00;;;;;;5020383;28;19920;-81
2023/03/20 04:00:58;;;;;;;;;;;8.90;78.70;;;;;;5045462;28;21828;-81
2023/03/20 04:03:27;;;;;;;;;;;8.90;78.60;;;;;;5027025;28;20281;-81
2023/03/20 04:05:54;;;;;;;;;;;8.90;79.00;;;;;;5029480;28;19923;-82
2023/03/20 04:08:19;;;;;;;;;;;9.00;78.40;;;;;;5050969;28;20048;-81
2023/03/20 04:10:45;;;;;;;;;;;9.00;78.70;;;;;;5053831;28;19923;-82
2023/03/20 04:13:10;;;;;;;;;;;9.00;79.00;;;;;;5045691;28;19932;-80
2023/03/20 04:15:37;;;;;;;;;;;9.00;78.40;;;;;;5040248;28;19973;-81
2023/03/20 04:18:03;;;;;;;;;;;9.00;78.30;;;;;;5031208;28;19967;-81
2023/03/20 04:20:28;;;;;;;;;;;9.00;78.20;;;;;;5035336;28;19940;-80
2023/03/20 04:22:54;;;;;;;;;;;9.10;78.10;;;;;;5032508;28;20316;-82
2023/03/20 04:25:20;;;;;;;;;;;9.10;78.40;;;;;;5048769;28;20457;-82
2023/03/20 04:27:46;;;;;;;;;;;9.10;78.70;;;;;;5049756;28;19917;-81
2023/03/20 04:30:11;;;;;;;;;;;9.10;78.60;;;;;;5035051;28;19928;-80
2023/03/20 04:32:37;;;;;;;;;;;9.10;79.20;;;;;;5032489;28;19924;-81
2023/03/20 04:35:02;;;;;;;;;;;9.00;79.70;;;;;;5052258;28;20015;-81
2023/03/20 04:37:28;;;;;;;;;;;8.90;80.10;;;;;;5051595;28;20017;-81
2023/03/20 04:39:54;;;;;;;;;;;9.00;80.60;;;;;;5048752;28;19936;-82
2023/03/20 04:42:19;;;;;;;;;;;9.00;80.60;;;;;;5047374;28;19956;-81
2023/03/20 04:44:45;;;;;;;;;;;9.00;80.50;;;;;;5029031;28;19912;-81
2023/03/20 04:47:10;;;;;;;;;;;9.00;80.70;;;;;;5048338;28;20634;-81
2023/03/20 04:49:36;;;;;;;;;;;8.90;81.00;;;;;;5032206;28;19917;-81
2023/03/20 04:52:01;;;;;;;;;;;8.80;81.10;;;;;;5031798;28;19928;-81
2023/03/20 04:54:26;;;;;;;;;;;8.70;81.30;;;;;;5056748;28;19917;-81
2023/03/20 04:56:52;;;;;;;;;;;8.70;81.70;;;;;;5041414;28;19924;-81
2023/03/20 04:59:17;;;;;;;;;;;8.80;81.50;;;;;;5032279;28;19917;-82
2023/03/20 05:01:43;;;;;;;;;;;8.80;81.70;;;;;;5051986;28;19919;-83
2023/03/20 05:04:09;;;;;;;;;;;8.70;81.90;;;;;;5033940;28;20287;-82
2023/03/20 05:06:34;;;;;;;;;;;8.60;81.70;;;;;;5029569;28;19913;-81
2023/03/20 05:09:00;;;;;;;;;;;8.60;81.90;;;;;;5047234;28;19941;-82
2023/03/20 05:11:26;;;;;;;;;;;8.60;82.10;;;;;;5034980;28;20570;-82
2023/03/20 05:13:51;;;;;;;;;;;8.50;82.10;;;;;;5036589;28;19912;-82
2023/03/20 05:16:17;;;;;;;;;;;8.50;82.10;;;;;;5066582;28;19952;-81
2023/03/20 05:18:42;;;;;;;;;;;8.60;81.70;;;;;;5048479;28;19916;-80
2023/03/20 05:21:08;;;;;;;;;;;8.50;82.00;;;;;;5067002;28;19920;-82
2023/03/20 05:23:34;;;;;;;;;;;8.50;82.40;;;;;;5052432;28;21823;-81
2023/03/20 05:25:59;;;;;;;;;;;8.50;82.10;;;;;;5030376;28;20005;-82
2023/03/20 05:28:25;;;;;;;;;;;8.50;82.40;;;;;;5031562;28;19912;-81
2023/03/20 05:30:50;;;;;;;;;;;8.40;82.70;;;;;;5051333;28;19939;-81
2023/03/20 05:33:16;;;;;;;;;;;8.40;82.80;;;;;;5050667;28;19917;-82
2023/03/20 05:35:41;;;;;;;;;;;8.40;83.20;;;;;;5049442;28;19921;-82
2023/03/20 05:38:07;;;;;;;;;;;8.50;83.00;;;;;;5035542;28;19943;-83
2023/03/20 05:40:32;;;;;;;;;;;8.50;82.70;;;;;;5048658;28;19920;-82
2023/03/20 05:42:58;;;;;;;;;;;8.50;82.60;;;;;;5036852;28;19913;-82
2023/03/20 05:45:23;;;;;;;;;;;8.50;82.70;;;;;;5049421;28;19924;-82
2023/03/20 05:47:49;;;;;;;;;;;8.50;82.50;;;;;;5032655;28;19913;-82
2023/03/20 05:50:15;;;;;;;;;;;8.50;82.60;;;;;;5035309;28;21264;-81
2023/03/20 05:52:40;;;;;;;;;;;8.50;82.70;;;;;;5033506;28;19921;-82
2023/03/20 05:55:06;;;;;;;;;;;8.50;82.70;;;;;;5056663;28;19923;-82
2023/03/20 05:57:31;;;;;;;;;;;8.50;82.80;;;;;;5039273;28;19908;-81
2023/03/20 05:59:57;;;;;;;;;;;8.50;82.60;;;;;;5064435;28;19944;-81
2023/03/20 06:02:22;;;;;;;;;;;8.50;82.90;;;;;;5071140;28;19920;-80
2023/03/20 06:04:48;;;;;;;;;;;8.50;82.50;;;;;;5083184;28;19904;-81
2023/03/20 06:07:13;;;;;;;;;;;8.40;82.40;;;;;;5060190;28;19913;-84
2023/03/20 06:09:39;;;;;;;;;;;8.40;82.40;;;;;;5038202;28;20309;-84
2023/03/20 06:12:04;;;;;;;;;;;8.30;82.60;;;;;;5040516;28;19920;-82
2023/03/20 06:14:30;;;;;;;;;;;8.30;82.80;;;;;;5058679;28;19917;-84
2023/03/20 06:16:56;;;;;;;;;;;8.30;82.40;;;;;;5054590;28;19916;-83
2023/03/20 06:19:21;;;;;;;;;;;8.40;82.40;;;;;;5036083;28;20313;-85
2023/03/20 06:21:48;;;;;;;;;;;8.30;82.50;;;;;;5045144;28;19913;-82
2023/03/20 06:24:13;;;;;;;;;;;8.30;82.60;;;;;;5039139;28;19916;-83
2023/03/20 06:26:39;;;;;;;;;;;8.40;82.80;;;;;;5029744;28;19921;-81
2023/03/20 06:29:05;;;;;;;;;;;8.50;82.50;;;;;;5050837;28;19920;-82
2023/03/20 06:31:30;;;;;;;;;;;8.50;82.00;;;;;;5030999;28;19970;-84
2023/03/20 06:33:56;;;;;;;;;;;8.60;81.90;;;;;;5040833;28;19928;-83
2023/03/20 06:36:22;;;;;;;;;;;8.50;81.90;;;;;;5059749;28;19921;-84
2023/03/20 06:38:47;;;;;;;;;;;8.50;81.90;;;;;;5035595;28;20011;-83
2023/03/20 06:41:13;;;;;;;;;;;8.60;81.50;;;;;;5058245;28;19946;-84
2023/03/20 06:43:38;;;;;;;;;;;8.50;81.10;;;;;;5045480;28;19932;-83
2023/03/20 06:46:04;;;;;;;;;;;8.60;81.20;;;;;;5054990;28;19919;-83
2023/03/20 06:48:30;;;;;;;;;;;8.50;81.10;;;;;;5053000;28;19939;-82
2023/03/20 06:50:55;;;;;;;;;;;8.60;81.10;;;;;;5045964;28;19925;-83
2023/03/20 06:53:21;;;;;;;;;;;8.60;80.90;;;;;;5062172;28;19927;-81
2023/03/20 06:55:47;;;;;;;;;;;8.60;80.80;;;;;;5064503;28;19999;-83
2023/03/20 06:58:13;;;;;;;;;;;8.50;81.00;;;;;;5041868;28;19979;-83
2023/03/20 07:00:38;;;;;;;;;;;8.60;80.30;;;;;;5063238;28;19963;-83
2023/03/20 07:03:04;;;;;;;;;;;8.70;80.40;;;;;;5043155;28;19913;-83
2023/03/20 07:05:29;;;;;;;;;;;8.70;79.80;;;;;;5057839;28;19975;-83
2023/03/20 07:07:55;;;;;;;;;;;8.70;79.80;;;;;;5036039;28;20363;-82
2023/03/20 07:10:20;;;;;;;;;;;8.70;79.80;;;;;;5041309;28;19927;-83
2023/03/20 07:12:46;;;;;;;;;;;8.60;79.40;;;;;;5050431;28;20385;-83
2023/03/20 07:15:11;;;;;;;;;;;8.60;79.60;;;;;;5056814;28;20414;-82
2023/03/20 07:17:37;;;;;;;;;;;8.70;79.20;;;;;;5056084;28;20427;-82
2023/03/20 07:20:15;;;;;;;;;;;8.70;79.30;;;;;;5083967;22;19935;-90
2023/03/20 07:22:51;;;;;;;;;;;8.80;79.00;;;;;;5049847;28;19920;-91
2023/03/20 07:25:29;;;;;;;;;;;8.90;78.90;;;;;;5049845;28;19913;-90
2023/03/20 07:28:11;;;;;;;;;;;9.00;78.50;;;;;;5048114;28;19912;-91
2023/03/20 07:30:43;;;;;;;;;;;8.90;78.30;;;;;;5050487;28;19916;-92
2023/03/20 07:33:09;;;;;;;;;;;9.00;78.30;;;;;;5068223;28;19939;-92
2023/03/20 07:35:34;;;;;;;;;;;9.00;78.00;;;;;;5060066;28;19912;-90
2023/03/20 07:38:00;;;;;;;;;;;9.00;77.80;;;;;;5054683;28;20320;-90
2023/03/20 07:40:25;;;;;;;;;;;9.00;77.90;;;;;;5072044;28;20323;-91
2023/03/20 07:42:51;;;;;;;;;;;9.00;77.80;;;;;;5065443;28;19908;-91
2023/03/20 07:45:17;;;;;;;;;;;9.00;77.40;;;;;;5060851;28;21646;-91
2023/03/20 07:47:43;;;;;;;;;;;9.10;77.50;;;;;;5071618;28;19915;-93
2023/03/20 07:50:09;;;;;;;;;;;9.10;77.30;;;;;;5070386;28;19916;-91
2023/03/20 07:52:34;;;;;;;;;;;9.20;77.10;;;;;;5054459;28;19912;-92
2023/03/20 07:55:06;;;;;;;;;;;9.30;77.00;;;;;;5053197;28;19999;-93
2023/03/20 07:57:54;;;;;;;;;;;9.30;76.20;;;;;;5041241;28;19908;-93
2023/03/20 08:00:31;;;;;;;;;;;9.50;75.70;;;;;;5040135;28;19908;-93
2023/03/20 08:03:02;;;;;;;;;;;9.50;74.80;;;;;;5064878;28;19908;-93
2023/03/20 08:05:28;;;;;;;;;;;9.60;74.90;;;;;;5057304;28;19954;-92
2023/03/20 08:08:00;;;;;;;;;;;9.60;74.90;;;;;;5057603;28;19912;-94
2023/03/20 08:10:37;;;;;;;;;;;9.70;74.20;;;;;;5063869;28;19918;-93
2023/03/20 08:13:03;;;;;;;;;;;9.70;73.90;;;;;;5056926;28;19909;-92
2023/03/20 08:15:28;;;;;;;;;;;9.70;73.40;;;;;;5056338;28;19962;-91
2023/03/20 08:17:56;;;;;;;;;;;9.70;73.80;;;;;;5056034;28;19920;-91
2023/03/20 08:20:22;;;;;;;;;;;9.80;73.30;;;;;;5047907;28;19943;-91
2023/03/20 08:22:48;;;;;;;;;;;9.70;73.50;;;;;;5063438;28;20289;-91
2023/03/20 08:25:14;;;;;;;;;;;9.60;74.10;;;;;;5063687;28;19935;-91
2023/03/20 08:27:39;;;;;;;;;;;9.60;73.90;;;;;;5060906;28;19909;-91
2023/03/20 08:30:05;;;;;;;;;;;9.60;73.70;;;;;;5059593;28;20262;-91
2023/03/20 08:35:11;;;;;;;;;;;9.60;73.10;;;;;;5225681;22;19929;-88
2023/03/20 08:37:37;;;;;;;;;;;9.70;73.60;;;;;;5056678;28;20015;-88
2023/03/20 08:43:07;;;;;;;;;;;9.90;72.80;;;;;;5051945;28;19916;-89
2023/03/20 08:45:32;;;;;;;;;;;10.00;73.00;;;;;;5034838;28;19917;-89
2023/03/20 08:48:06;;;;;;;;;;;10.00;72.30;;;;;;5034944;28;19932;-91
2023/03/20 08:50:32;;;;;;;;;;;10.10;72.50;;;;;;5132818;22;19977;-87
2023/03/20 08:53:03;;;;;;;;;;;10.30;71.80;;;;;;5073144;28;19912;-89
2023/03/20 08:55:29;;;;;;;;;;;10.40;71.20;;;;;;5088825;28;19908;-87
2023/03/20 08:57:57;;;;;;;;;;;10.60;70.30;;;;;;5070471;28;19908;-89
2023/03/20 09:00:32;;;;;;;;;;;10.60;69.70;;;;;;5056113;28;19913;-91
2023/03/20 09:05:46;;;;;;;;;;;10.50;68.90;;;;;;5081677;28;20003;-87
2023/03/20 09:08:15;;;;;;;;;;;10.40;68.00;;;;;;5075233;28;20419;-88
2023/03/20 09:10:40;;;;;;;;;;;10.40;67.80;;;;;;5077296;28;20019;-89
2023/03/20 09:16:15;;;;;;;;;;;10.30;68.10;;;;;;5085812;28;20381;-91
2023/03/20 09:19:48;;;;;;;;;;;;;;;;;;;;;
2023/03/20 09:21:38;;;;;;;;;;;10.10;67.60;;;;;;5023625;28;19908;-90
2023/03/20 09:24:38;;;;;;;;;;;10.20;67.40;;;;;;5067464;28;19909;-89
2023/03/20 09:27:04;;;;;;;;;;;10.20;67.70;;;;;;5091818;28;19912;-88
2023/03/20 09:29:30;;;;;;;;;;;10.20;67.60;;;;;;5070201;28;19922;-87
2023/03/20 09:31:55;;;;;;;;;;;10.10;67.90;;;;;;5080931;28;19900;-87
2023/03/20 09:34:21;;;;;;;;;;;10.10;67.50;;;;;;5081149;28;19924;-88
2023/03/20 09:36:47;;;;;;;;;;;10.10;67.30;;;;;;5074218;28;20005;-87
2023/03/20 09:39:12;;;;;;;;;;;10.20;67.80;;;;;;5074211;28;20377;-88
2023/03/20 09:41:38;;;;;;;;;;;10.20;67.20;;;;;;5073221;28;19973;-87
2023/03/20 09:44:19;;;;;;;;;;;10.10;67.80;;;;;;5074356;28;19916;-88
2023/03/20 09:46:55;;;;;;;;;;;10.20;67.80;;;;;;5073560;28;20050;-87
2023/03/20 09:49:50;;;;;;;;;;;10.10;67.50;;;;;;5071120;28;19917;-86
2023/03/20 09:52:33;;;;;;;;;;;10.10;67.60;;;;;;5015798;28;19917;-87
2023/03/20 09:55:05;;;;;;;;;;;10.30;67.80;;;;;;5062345;28;19912;-87
2023/03/20 09:57:34;;;;;;;;;;;10.30;66.90;;;;;;5073425;28;19931;-87
2023/03/20 10:00:01;;;;;;;;;;;10.40;66.50;;;;;;5092023;28;19912;-86
2023/03/20 10:02:30;;;;;;;;;;;10.40;67.00;;;;;;5073647;28;19908;-88
2023/03/20 10:04:55;;;;;;;;;;;10.50;67.80;;;;;;5073552;28;20341;-88
2023/03/20 10:07:21;;;;;;;;;;;10.40;67.30;;;;;;5070404;28;19915;-87
2023/03/20 10:09:50;;;;;;;;;;;10.40;66.40;;;;;;5070134;28;20389;-88
2023/03/20 10:12:15;;;;;;;;;;;10.30;66.50;;;;;;5070508;28;20483;-87
2023/03/20 10:14:41;;;;;;;;;;;10.40;67.00;;;;;;5073006;28;19912;-87
2023/03/20 10:17:25;;;;;;;;;;;10.40;65.80;;;;;;5081052;28;20334;-88
2023/03/20 10:19:55;;;;;;;;;;;10.50;66.20;;;;;;5073140;28;19912;-87
2023/03/20 10:22:25;;;;;;;;;;;10.40;65.90;;;;;;5063098;28;19909;-88
2023/03/20 10:25:13;;;;;;;;;;;10.50;65.90;;;;;;5053489;28;19913;-86
2023/03/20 10:27:42;;;;;;;;;;;10.60;64.50;;;;;;5053346;28;19924;-88
2023/03/20 10:30:28;;;;;;;;;;;10.60;65.80;;;;;;5072150;28;19916;-87
2023/03/20 10:33:12;;;;;;;;;;;10.60;65.90;;;;;;5054319;28;20378;-87
2023/03/20 10:35:44;;;;;;;;;;;10.60;65.60;;;;;;5085389;28;19948;-88
2023/03/20 10:38:32;;;;;;;;;;;10.60;66.20;;;;;;5073305;28;19908;-88
2023/03/20 10:40:58;;;;;;;;;;;10.70;66.10;;;;;;5068369;28;20326;-87
2023/03/20 10:43:27;;;;;;;;;;;10.70;63.60;;;;;;5075443;28;19999;-88
2023/03/20 10:45:56;;;;;;;;;;;10.60;62.80;;;;;;5076594;28;19943;-88
2023/03/20 10:48:33;;;;;;;;;;;10.60;61.80;;;;;;5076569;28;19914;-89
2023/03/20 10:51:00;;;;;;;;;;;10.50;61.50;;;;;;5074925;28;19920;-88
2023/03/20 10:53:26;;;;;;;;;;;10.60;62.10;;;;;;5076454;28;19999;-89
2023/03/20 10:55:53;;;;;;;;;;;10.60;61.20;;;;;;5076606;28;19966;-86
2023/03/20 10:58:21;;;;;;;;;;;10.60;61.20;;;;;;5089718;28;19912;-85
2023/03/20 11:00:47;;;;;;;;;;;10.70;61.80;;;;;;5068564;28;19912;-84
2023/03/20 11:03:19;;;;;;;;;;;10.80;60.80;;;;;;5059805;28;20297;-83
2023/03/20 11:05:45;;;;;;;;;;;10.90;61.00;;;;;;5095543;28;19912;-84
2023/03/20 11:08:12;;;;;;;;;;;10.80;61.30;;;;;;5082912;28;19915;-85
2023/03/20 11:10:38;;;;;;;;;;;10.90;61.70;;;;;;5065616;28;19916;-85
2023/03/20 11:13:15;;;;;;;;;;;10.90;60.80;;;;;;5074927;28;19916;-86
2023/03/20 11:15:41;;;;;;;;;;;10.80;61.00;;;;;;5078958;28;20292;-85
2023/03/20 11:18:12;;;;;;;;;;;10.80;60.60;;;;;;5063765;28;19912;-84
2023/03/20 11:20:43;;;;;;;;;;;11.00;61.30;;;;;;5079147;28;19908;-85
2023/03/20 11:23:13;;;;;;;;;;;11.00;60.70;;;;;;5094044;28;20395;-85
2023/03/20 11:25:45;;;;;;;;;;;11.00;60.60;;;;;;5076760;28;19969;-85
2023/03/20 11:28:25;;;;;;;;;;;11.00;60.70;;;;;;5070874;28;19912;-86
2023/03/20 11:30:56;;;;;;;;;;;11.00;60.90;;;;;;5083953;28;20015;-86
2023/03/20 11:33:25;;;;;;;;;;;10.80;61.80;;;;;;5085195;28;19912;-85
2023/03/20 11:35:51;;;;;;;;;;;10.80;62.50;;;;;;5094828;28;19977;-85
2023/03/20 11:38:19;;;;;;;;;;;10.80;60.70;;;;;;5094727;28;19912;-86
2023/03/20 11:40:46;;;;;;;;;;;10.90;60.70;;;;;;5094473;28;19912;-85
2023/03/20 11:43:18;;;;;;;;;;;11.00;61.10;;;;;;5093143;28;19951;-89
2023/03/20 11:46:07;;;;;;;;;;;11.20;60.90;;;;;;5076501;28;19912;-92
2023/03/20 11:48:58;;;;;;;;;;;11.20;60.50;;;;;;5076909;28;20357;-92
2023/03/20 11:51:24;;;;;;;;;;;11.30;60.30;;;;;;5076838;28;19916;-87
2023/03/20 11:54:18;;;;;;;;;;;11.40;59.90;;;;;;5068472;28;20022;-90
2023/03/20 11:57:06;;;;;;;;;;;11.50;59.40;;;;;;5007264;28;20012;-88
2023/03/20 11:59:47;;;;;;;;;;;11.40;59.50;;;;;;4995011;28;19949;-90
2023/03/20 12:02:27;;;;;;;;;;;11.30;59.60;;;;;;4996995;28;19910;-90
2023/03/20 12:08:24;;;;;;;;;;;11.10;60.70;;;;;;5006945;28;20334;-89
2023/03/20 12:13:57;;;;;;;;;;;11.20;60.10;;;;;;5007763;28;19913;-89
2023/03/20 12:16:26;;;;;;;;;;;11.20;60.60;;;;;;4995894;28;19921;-89
2023/03/20 12:18:56;;;;;;;;;;;11.10;61.30;;;;;;5017379;28;20052;-89
2023/03/20 12:21:25;;;;;;;;;;;11.10;61.50;;;;;;5062625;28;19922;-87
2023/03/20 12:24:23;;;;;;;;;;;11.10;61.80;;;;;;5076943;28;19908;-87
2023/03/20 12:26:53;;;;;;;;;;;11.10;61.90;;;;;;5070660;28;20055;-88
2023/03/20 12:29:30;;;;;;;;;;;11.00;63.90;;;;;;5092861;28;19995;-87
2023/03/20 12:32:00;;;;;;;;;;;10.70;63.90;;;;;;5075550;28;19989;-85
2023/03/20 12:34:31;;;;;;;;;;;10.70;63.80;;;;;;5093423;28;19912;-85
2023/03/20 12:37:01;;;;;;;;;;;10.70;64.40;;;;;;5072104;28;19923;-85
2023/03/20 12:39:35;;;;;;;;;;;10.70;64.30;;;;;;5077951;28;20010;-88
2023/03/20 12:42:10;;;;;;;;;;;10.70;63.20;;;;;;5071312;28;19908;-90
2023/03/20 12:44:54;;;;;;;;;;;10.70;63.90;;;;;;5075806;28;20036;-88
2023/03/20 12:47:39;;;;;;;;;;;10.60;63.80;;;;;;5078249;28;19926;-92
2023/03/20 12:56:11;;;;;;;;;;;10.60;64.10;;;;;;5085980;28;19972;-90
2023/03/20 12:59:02;;;;;;;;;;;10.80;63.60;;;;;;5075900;28;19949;-91
2023/03/20 13:01:55;;;;;;;;;;;10.70;65.90;;;;;;5054841;28;20016;-91
2023/03/20 13:04:41;;;;;;;;;;;10.70;66.40;;;;;;5052484;28;19981;-89
2023/03/20 13:07:16;;;;;;;;;;;10.50;67.60;;;;;;5051162;28;19912;-89
2023/03/20 13:09:50;;;;;;;;;;;10.40;67.70;;;;;;5045142;28;19921;-87
2023/03/20 13:12:20;;;;;;;;;;;10.40;68.40;;;;;;5056932;28;20336;-88
2023/03/20 13:14:48;;;;;;;;;;;10.60;67.60;;;;;;5043749;28;19915;-85
2023/03/20 13:17:50;;;;;;;;;;;10.50;66.80;;;;;;5045203;28;19952;-89
2023/03/20 13:23:56;;;;;;;;;;;10.50;66.20;;;;;;5004127;28;19967;-94
2023/03/20 13:32:40;;;;;;;;;;;10.50;66.30;;;;;;5649001;22;19936;-91
2023/03/20 13:38:36;;;;;;;;;;;10.30;66.40;;;;;;4967945;28;19918;-92
2023/03/20 13:44:08;;;;;;;;;;;10.30;66.70;;;;;;5032193;28;20154;-92
2023/03/20 13:46:40;;;;;;;;;;;10.30;66.40;;;;;;5032745;28;19921;-91
2023/03/20 13:49:15;;;;;;;;;;;10.30;66.80;;;;;;5052432;28;20003;-87
2023/03/20 13:51:55;;;;;;;;;;;10.30;68.00;;;;;;5045025;28;20261;-89
2023/03/20 13:54:44;;;;;;;;;;;10.30;68.70;;;;;;5033879;28;20354;-90
2023/03/20 13:57:28;;;;;;;;;;;10.30;69.30;;;;;;5033231;28;20300;-89
2023/03/20 13:59:54;;;;;;;;;;;10.30;68.40;;;;;;5029929;28;19913;-87
2023/03/20 14:02:22;;;;;;;;;;;10.30;68.70;;;;;;5023676;28;20424;-87
2023/03/20 14:04:50;;;;;;;;;;;10.50;68.40;;;;;;5025650;28;19913;-86
2023/03/20 14:07:30;;;;;;;;;;;10.50;67.30;;;;;;5046851;28;20035;-88
2023/03/20 14:09:56;;;;;;;;;;;10.50;66.70;;;;;;5027636;28;20315;-89
2023/03/20 14:12:26;;;;;;;;;;;10.50;67.10;;;;;;5038768;28;19927;-88
2023/03/20 14:21:20;;;;;;;;;;;10.30;68.20;;;;;;5022849;28;20413;-90
2023/03/20 14:30:27;;;;;;;;;;;10.30;68.90;;;;;;5040270;22;19978;-82
2023/03/20 14:33:04;;;;;;;;;;;10.40;69.60;;;;;;5070416;28;19923;-81
2023/03/20 14:35:34;;;;;;;;;;;10.50;69.50;;;;;;5052556;28;20052;-82
2023/03/20 14:38:18;;;;;;;;;;;10.50;68.40;;;;;;5073088;28;19967;-83
2023/03/20 14:41:03;;;;;;;;;;;10.50;68.70;;;;;;5046202;28;19923;-82
2023/03/20 14:43:47;;;;;;;;;;;10.40;68.40;;;;;;5080844;28;19983;-82
2023/03/20 14:46:19;;;;;;;;;;;10.40;68.10;;;;;;5072835;28;20011;-83
2023/03/20 14:48:48;;;;;;;;;;;10.40;68.40;;;;;;5063626;28;20244;-82
2023/03/20 14:51:23;;;;;;;;;;;10.40;67.60;;;;;;5061597;28;19921;-82
2023/03/20 14:53:52;;;;;;;;;;;10.40;67.60;;;;;;5060190;28;20347;-82
2023/03/20 14:56:24;;;;;;;;;;;10.50;67.70;;;;;;5077058;28;19923;-83
2023/03/20 14:58:55;;;;;;;;;;;10.50;68.50;;;;;;5062169;28;20011;-84
2023/03/20 15:01:20;;;;;;;;;;;10.50;69.00;;;;;;5071794;28;19966;-84
2023/03/20 15:03:51;;;;;;;;;;;10.50;69.00;;;;;;5083290;28;19984;-82
2023/03/20 15:06:21;;;;;;;;;;;10.60;68.40;;;;;;5067272;28;19920;-80
2023/03/20 15:08:49;;;;;;;;;;;10.60;68.40;;;;;;5043203;28;19913;-80
2023/03/20 15:11:15;;;;;;;;;;;10.60;68.80;;;;;;5070286;28;19920;-81
2023/03/20 15:13:41;;;;;;;;;;;10.70;69.00;;;;;;5057349;28;20430;-82
2023/03/20 15:16:08;;;;;;;;;;;10.60;69.30;;;;;;5050450;28;20588;-79
2023/03/20 15:18:39;;;;;;;;;;;10.60;69.90;;;;;;5058419;28;20332;-80
2023/03/20 15:21:15;;;;;;;;;;;10.70;69.10;;;;;;5085231;28;19999;-79
2023/03/20 15:23:45;;;;;;;;;;;10.70;68.50;;;;;;5066099;28;19939;-81
2023/03/20 15:26:14;;;;;;;;;;;10.70;68.00;;;;;;5051948;28;19935;-81
2023/03/20 15:28:41;;;;;;;;;;;10.70;67.90;;;;;;5082593;28;19934;-80
2023/03/20 15:31:17;;;;;;;;;;;10.60;68.50;;;;;;5072831;28;19917;-82
2023/03/20 15:33:43;;;;;;;;;;;10.50;68.60;;;;;;5073300;28;19913;-81
2023/03/20 15:36:13;;;;;;;;;;;10.40;69.00;;;;;;5059906;28;19988;-81